createdAt,value
2022-07-26T00:00:29.357Z,1.88
2022-07-26T00:02:56.253Z,1.58
2022-07-26T00:05:23.150Z,1.27
2022-07-26T00:07:49.943Z,1.80
2022-07-26T00:10:17.317Z,1.80
2022-07-26T00:12:44.145Z,1.65
2022-07-26T00:15:11.667Z,1.60
2022-07-26T00:17:39.122Z,1.80
2022-07-26T00:20:06.608Z,1.92
2022-07-26T00:22:36.213Z,1.38
2022-07-26T00:25:07.330Z,2.30
2022-07-26T00:27:37.229Z,1.88
2022-07-26T00:30:09.166Z,1.15
2022-07-26T00:32:37.637Z,1.50
2022-07-26T00:35:05.326Z,1.52
2022-07-26T00:37:32.634Z,1.50
2022-07-26T00:39:59.529Z,1.30
2022-07-26T00:42:26.368Z,1.58
2022-07-26T00:44:53.187Z,1.40
2022-07-26T00:47:20.037Z,1.80
2022-07-26T00:49:46.859Z,1.50
2022-07-26T00:52:13.743Z,1.77
2022-07-26T00:54:43.849Z,1.50
2022-07-26T00:57:10.835Z,1.50
2022-07-26T00:59:37.889Z,2.22
2022-07-26T01:02:07.059Z,1.50
2022-07-26T01:04:34.333Z,1.17
2022-07-26T01:07:02.322Z,1.48
2022-07-26T01:09:41.962Z,2.03
2022-07-26T01:12:09.158Z,1.50
2022-07-26T01:14:36.045Z,1.42
2022-07-26T01:17:02.882Z,1.92
2022-07-26T01:19:29.835Z,1.58
2022-07-26T01:21:56.773Z,1.25
2022-07-26T01:24:23.629Z,1.52
2022-07-26T01:26:50.459Z,1.40
2022-07-26T01:29:17.413Z,1.30
2022-07-26T01:31:44.278Z,1.30
2022-07-26T01:34:11.600Z,1.30
2022-07-26T01:36:39.707Z,1.50
2022-07-26T01:39:07.216Z,1.60
2022-07-26T01:41:38.145Z,1.27
2022-07-26T01:44:07.445Z,2.17
2022-07-26T01:46:35.382Z,1.17
2022-07-26T01:49:02.719Z,1.50
2022-07-26T01:51:29.585Z,1.52
2022-07-26T01:53:56.779Z,1.50
2022-07-26T01:56:23.767Z,1.63
2022-07-26T01:58:50.587Z,1.60
2022-07-26T02:01:37.725Z,1.67
2022-07-26T02:04:04.671Z,1.60
2022-07-26T02:06:31.763Z,3.45
2022-07-26T02:08:58.655Z,1.40
2022-07-26T02:11:26.359Z,1.52
2022-07-26T02:13:53.451Z,1.85
2022-07-26T02:16:20.530Z,1.70
2022-07-26T02:18:47.436Z,1.70
2022-07-26T02:21:14.259Z,1.80
2022-07-26T02:23:41.953Z,1.48
2022-07-26T02:26:09.369Z,1.45
2022-07-26T02:28:36.190Z,1.48
2022-07-26T02:31:03.203Z,1.45
2022-07-26T02:33:30.091Z,1.63
2022-07-26T02:35:56.891Z,1.80
2022-07-26T02:38:24.507Z,1.58
2022-07-26T02:40:52.799Z,1.92
2022-07-26T02:43:20.039Z,1.50
2022-07-26T02:46:01.549Z,1.80
2022-07-26T02:48:30.272Z,1.10
2022-07-26T02:50:57.232Z,1.85
2022-07-26T02:53:24.264Z,1.40
2022-07-26T02:55:51.710Z,2.05
2022-07-26T02:58:21.397Z,1.80
2022-07-26T03:00:48.505Z,1.88
2022-07-26T03:03:15.442Z,1.83
2022-07-26T03:05:42.327Z,1.65
2022-07-26T03:08:09.179Z,1.52
2022-07-26T03:10:36.150Z,1.80
2022-07-26T03:13:03.234Z,1.92
2022-07-26T03:15:30.157Z,1.45
2022-07-26T03:17:57.331Z,1.40
2022-07-26T03:20:24.510Z,1.67
2022-07-26T03:22:51.361Z,2.17
2022-07-26T03:25:18.175Z,2.47
2022-07-26T03:27:45.037Z,1.65
2022-07-26T03:30:12.694Z,1.50
2022-07-26T03:32:39.690Z,1.70
2022-07-26T03:35:07.846Z,1.70
2022-07-26T03:37:46.095Z,1.77
2022-07-26T03:40:17.392Z,1.30
2022-07-26T03:42:48.495Z,1.30
2022-07-26T03:45:16.062Z,1.45
2022-07-26T03:47:43.321Z,1.50
2022-07-26T03:50:11.166Z,1.30
2022-07-26T03:52:38.420Z,1.23
2022-07-26T03:55:26.129Z,2.00
2022-07-26T03:57:53.104Z,1.23
2022-07-26T04:00:20.054Z,1.60
2022-07-26T04:02:46.962Z,1.83
2022-07-26T04:05:13.897Z,1.58
2022-07-26T04:07:52.503Z,1.30
2022-07-26T04:10:21.443Z,1.27
2022-07-26T04:12:49.148Z,1.65
2022-07-26T04:15:17.243Z,1.38
2022-07-26T04:17:44.421Z,1.52
2022-07-26T04:20:12.511Z,1.40
2022-07-26T04:22:40.369Z,1.38
2022-07-26T04:25:09.457Z,1.83
2022-07-26T04:27:36.844Z,1.45
2022-07-26T04:30:06.675Z,1.95
2022-07-26T04:32:35.323Z,1.67
2022-07-26T04:35:02.150Z,1.58
2022-07-26T04:37:29.026Z,1.20
2022-07-26T04:39:55.831Z,1.50
2022-07-26T04:42:22.671Z,1.70
2022-07-26T04:44:49.471Z,1.38
2022-07-26T04:47:16.306Z,1.70
2022-07-26T04:49:43.309Z,1.33
2022-07-26T04:52:10.114Z,1.40
2022-07-26T04:54:37.190Z,2.30
2022-07-26T04:57:04.256Z,1.65
2022-07-26T04:59:32.746Z,1.45
2022-07-26T05:02:00.192Z,1.40
2022-07-26T05:04:27.622Z,1.70
2022-07-26T05:06:54.463Z,1.70
2022-07-26T05:09:21.292Z,1.90
2022-07-26T05:11:48.173Z,1.77
2022-07-26T05:14:14.963Z,1.73
2022-07-26T05:16:44.284Z,1.98
2022-07-26T05:19:12.051Z,1.80
2022-07-26T05:21:39.023Z,2.00
2022-07-26T05:24:07.531Z,2.20
2022-07-26T05:26:34.838Z,2.05
2022-07-26T05:29:01.783Z,1.70
2022-07-26T05:31:28.749Z,1.55
2022-07-26T05:33:55.667Z,2.38
2022-07-26T05:36:22.541Z,2.00
2022-07-26T05:38:49.413Z,2.17
2022-07-26T05:41:16.745Z,2.03
2022-07-26T05:43:43.603Z,2.08
2022-07-26T05:46:11.967Z,1.90
2022-07-26T05:48:43.001Z,2.05
2022-07-26T05:51:10.640Z,1.98
2022-07-26T05:53:38.633Z,1.92
2022-07-26T05:56:05.993Z,1.90
2022-07-26T05:58:33.001Z,2.47
2022-07-26T06:00:59.988Z,2.00
2022-07-26T06:03:27.024Z,2.03
2022-07-26T06:05:57.365Z,2.00
2022-07-26T06:08:25.783Z,1.55
2022-07-26T06:10:53.527Z,1.98
2022-07-26T06:13:20.455Z,2.22
2022-07-26T06:15:48.849Z,1.95
2022-07-26T06:18:15.750Z,2.42
2022-07-26T06:20:44.228Z,2.35
2022-07-26T06:23:11.418Z,2.13
2022-07-26T06:25:39.124Z,1.92
2022-07-26T06:28:08.461Z,2.15
2022-07-26T06:30:36.577Z,1.83
2022-07-26T06:33:03.682Z,1.60
2022-07-26T06:35:32.159Z,1.80
2022-07-26T06:38:00.025Z,1.75
2022-07-26T06:40:27.115Z,1.98
2022-07-26T06:42:54.136Z,1.83
2022-07-26T06:45:21.185Z,1.80
2022-07-26T06:47:48.043Z,1.70
2022-07-26T06:50:14.989Z,1.58
2022-07-26T06:52:47.986Z,2.20
2022-07-26T06:55:15.044Z,1.80
2022-07-26T06:57:45.065Z,1.58
2022-07-26T07:00:18.275Z,1.90
2022-07-26T07:02:45.328Z,1.92
2022-07-26T07:05:12.443Z,2.50
2022-07-26T07:07:39.534Z,1.80
2022-07-26T07:10:10.103Z,2.25
2022-07-26T07:12:37.327Z,1.70
2022-07-26T07:15:04.476Z,1.58
2022-07-26T07:17:31.268Z,2.08
2022-07-26T07:19:58.102Z,1.70
2022-07-26T07:22:24.934Z,1.50
2022-07-26T07:24:51.857Z,1.85
2022-07-26T07:27:18.908Z,2.10
2022-07-26T07:29:48.099Z,1.77
2022-07-26T07:32:18.437Z,1.55
2022-07-26T07:34:48.453Z,2.22
2022-07-26T07:37:16.224Z,1.88
2022-07-26T07:39:43.187Z,1.83
2022-07-26T07:42:10.043Z,1.80
2022-07-26T07:44:36.913Z,1.73
2022-07-26T07:47:04.130Z,1.70
2022-07-26T07:49:31.837Z,1.70
2022-07-26T07:51:58.731Z,1.95
2022-07-26T07:54:25.597Z,1.92
2022-07-26T07:56:53.190Z,2.03
2022-07-26T07:59:20.031Z,1.85
2022-07-26T08:01:50.249Z,1.92
2022-07-26T08:04:17.245Z,1.45
2022-07-26T08:06:50.130Z,2.15
2022-07-26T08:09:18.532Z,2.17
2022-07-26T08:11:46.132Z,1.70
2022-07-26T08:14:18.538Z,2.60
2022-07-26T08:16:45.875Z,2.67
2022-07-26T08:19:13.141Z,2.35
2022-07-26T08:21:42.975Z,2.05
2022-07-26T08:24:10.891Z,1.40
2022-07-26T08:26:38.043Z,2.03
2022-07-26T08:29:05.063Z,1.42
2022-07-26T08:31:31.999Z,1.10
2022-07-26T08:33:58.919Z,1.17
2022-07-26T08:36:31.959Z,1.63
2022-07-26T08:39:00.191Z,1.20
2022-07-26T08:41:27.110Z,1.05
2022-07-26T08:43:54.175Z,1.08
2022-07-26T08:46:26.424Z,1.70
2022-07-26T08:48:54.558Z,1.10
2022-07-26T08:51:24.126Z,0.90
2022-07-26T08:53:56.057Z,0.98
2022-07-26T08:56:25.046Z,1.30
2022-07-26T08:58:51.902Z,1.13
2022-07-26T09:01:18.827Z,1.45
2022-07-26T09:03:46.080Z,1.30
2022-07-26T09:06:12.995Z,1.00
2022-07-26T09:08:39.970Z,0.93
2022-07-26T09:11:25.342Z,1.00
2022-07-26T09:13:58.335Z,1.20
2022-07-26T09:16:25.558Z,1.05
2022-07-26T09:18:52.985Z,1.20
2022-07-26T09:21:31.118Z,1.25
2022-07-26T09:23:59.507Z,1.02
2022-07-26T09:26:27.184Z,1.10
2022-07-26T09:29:06.117Z,1.20
2022-07-26T09:31:34.289Z,1.08
2022-07-26T09:34:01.441Z,1.30
2022-07-26T09:36:28.695Z,1.13
2022-07-26T09:38:59.076Z,0.90
2022-07-26T09:41:33.345Z,1.00
2022-07-26T09:44:02.407Z,0.82
2022-07-26T09:46:30.378Z,0.90
2022-07-26T09:49:10.402Z,0.90
2022-07-26T09:51:44.750Z,1.15
2022-07-26T09:54:17.100Z,1.30
2022-07-26T09:59:16.425Z,0.90
2022-07-26T10:01:44.521Z,0.70
2022-07-26T10:04:12.443Z,0.90
2022-07-26T10:06:40.338Z,0.80
2022-07-26T10:09:08.933Z,0.90
2022-07-26T10:11:54.976Z,0.90
2022-07-26T10:14:34.053Z,0.80
2022-07-26T10:17:01.879Z,1.10
2022-07-26T10:19:45.506Z,0.80
2022-07-26T10:22:36.237Z,1.02
2022-07-26T10:25:18.648Z,0.98
2022-07-26T10:30:19.779Z,0.60
2022-07-26T10:33:01.540Z,0.60
2022-07-26T10:35:34.210Z,0.40
2022-07-26T10:38:10.138Z,0.50
2022-07-26T10:41:00.960Z,0.70
2022-07-26T10:43:44.276Z,0.45
2022-07-26T10:46:18.096Z,0.40
2022-07-26T10:48:59.650Z,0.55
2022-07-26T10:51:34.121Z,0.70
2022-07-26T10:54:06.264Z,0.47
2022-07-26T10:56:34.228Z,0.45
2022-07-26T10:59:02.061Z,0.50
2022-07-26T11:01:40.274Z,1.02
2022-07-26T11:04:26.073Z,0.38
2022-07-26T11:06:53.151Z,0.82
2022-07-26T11:09:20.972Z,0.38
2022-07-26T11:11:48.597Z,0.80
2022-07-26T11:14:17.905Z,0.60
2022-07-26T11:16:52.553Z,0.77
2022-07-26T11:19:22.367Z,0.70
2022-07-26T11:22:00.135Z,0.60
2022-07-26T11:24:28.635Z,0.60
2022-07-26T11:26:56.759Z,0.40
2022-07-26T11:29:38.960Z,0.63
2022-07-26T11:32:20.578Z,0.52
2022-07-26T11:35:01.432Z,0.82
2022-07-26T11:37:28.533Z,0.38
2022-07-26T11:39:55.760Z,0.82
2022-07-26T11:42:22.720Z,0.82
2022-07-26T11:44:50.535Z,0.95
2022-07-26T11:47:24.180Z,0.68
2022-07-26T11:50:12.471Z,0.55
2022-07-26T11:52:40.394Z,0.50
2022-07-26T11:55:07.889Z,0.82
2022-07-26T11:57:34.829Z,0.50
2022-07-26T12:00:02.104Z,0.65
2022-07-26T12:02:30.763Z,0.60
2022-07-26T12:05:18.499Z,0.55
2022-07-26T12:08:04.411Z,0.60
2022-07-26T12:10:31.549Z,0.57
2022-07-26T12:13:27.723Z,0.30
2022-07-26T12:16:06.844Z,0.80
2022-07-26T12:18:35.380Z,0.90
2022-07-26T12:21:08.842Z,0.60
2022-07-26T12:23:43.471Z,0.70
2022-07-26T12:26:28.354Z,0.50
2022-07-26T12:28:56.466Z,0.95
2022-07-26T12:31:23.649Z,0.80
2022-07-26T12:33:50.822Z,1.00
2022-07-26T12:36:28.270Z,0.65
2022-07-26T12:39:00.799Z,0.65
2022-07-26T12:41:47.383Z,0.75
2022-07-26T12:44:15.371Z,0.77
2022-07-26T12:46:47.625Z,0.50
2022-07-26T12:49:14.734Z,0.57
2022-07-26T12:51:41.678Z,0.50
2022-07-26T12:54:09.229Z,0.50
2022-07-26T12:56:36.532Z,0.70
2022-07-26T12:59:03.558Z,0.70
2022-07-26T13:01:31.762Z,0.80
2022-07-26T13:03:58.861Z,0.60
2022-07-26T13:06:25.735Z,0.77
2022-07-26T13:08:52.739Z,0.60
2022-07-26T13:11:19.573Z,0.77
2022-07-26T13:13:46.514Z,0.90
2022-07-26T13:16:13.502Z,0.80
2022-07-26T13:18:40.380Z,0.90
2022-07-26T13:21:07.353Z,0.70
2022-07-26T13:23:35.664Z,0.60
2022-07-26T13:26:03.600Z,0.90
2022-07-26T13:28:31.306Z,0.60
2022-07-26T13:30:58.262Z,1.00
2022-07-26T13:33:25.187Z,0.77
2022-07-26T13:35:52.055Z,0.90
2022-07-26T13:38:20.227Z,1.23
2022-07-26T13:40:47.249Z,0.55
2022-07-26T13:43:14.705Z,0.75
2022-07-26T13:45:41.678Z,0.60
2022-07-26T13:48:08.713Z,0.43
2022-07-26T13:50:35.667Z,0.60
2022-07-26T13:53:02.556Z,0.60
2022-07-26T13:55:29.402Z,0.88
2022-07-26T13:57:57.883Z,1.10
2022-07-26T14:00:27.199Z,0.70
2022-07-26T14:02:55.663Z,0.90
2022-07-26T14:05:23.126Z,0.73
2022-07-26T14:07:50.716Z,0.80
2022-07-26T14:10:18.041Z,0.70
2022-07-26T14:12:45.230Z,0.82
2022-07-26T14:15:15.422Z,0.75
2022-07-26T14:17:47.125Z,0.70
2022-07-26T14:20:14.942Z,0.55
2022-07-26T14:22:41.781Z,0.65
2022-07-26T14:25:09.093Z,0.90
2022-07-26T14:27:35.966Z,0.80
2022-07-26T14:30:04.380Z,0.77
2022-07-26T14:32:31.419Z,0.65
2022-07-26T14:34:58.245Z,0.90
2022-07-26T14:37:43.342Z,0.52
2022-07-26T14:40:13.667Z,0.90
2022-07-26T14:42:40.689Z,0.98
2022-07-26T14:45:09.488Z,1.00
2022-07-26T14:47:36.511Z,0.90
2022-07-26T14:50:07.167Z,1.13
2022-07-26T14:52:40.734Z,1.08
2022-07-26T14:55:08.537Z,0.88
2022-07-26T14:57:39.054Z,1.00
2022-07-26T15:00:12.300Z,1.00
2022-07-26T15:02:41.716Z,0.95
2022-07-26T15:05:10.284Z,0.80
2022-07-26T15:07:37.409Z,1.00
2022-07-26T15:10:05.339Z,1.02
2022-07-26T15:12:32.208Z,0.80
2022-07-26T15:14:59.157Z,0.90
2022-07-26T15:17:26.384Z,1.13
2022-07-26T15:19:53.193Z,0.85
2022-07-26T15:22:20.209Z,0.95
2022-07-26T15:24:47.149Z,1.25
2022-07-26T15:27:14.239Z,1.55
2022-07-26T15:29:41.157Z,1.15
2022-07-26T15:32:08.216Z,1.70
2022-07-26T15:34:35.197Z,1.75
2022-07-26T15:37:02.160Z,1.50
2022-07-26T15:39:29.018Z,1.45
2022-07-26T15:41:56.056Z,1.20
2022-07-26T15:44:25.575Z,1.70
2022-07-26T15:46:52.971Z,1.48
2022-07-26T15:49:20.014Z,1.90
2022-07-26T15:51:47.377Z,1.48
2022-07-26T15:54:16.047Z,1.58
2022-07-26T15:56:43.191Z,1.35
2022-07-26T15:59:10.325Z,1.63
2022-07-26T16:01:37.745Z,1.27
2022-07-26T16:04:05.823Z,1.55
2022-07-26T16:06:33.654Z,1.40
2022-07-26T16:09:19.375Z,1.40
2022-07-26T16:11:47.457Z,1.20
2022-07-26T16:14:14.895Z,1.58
2022-07-26T16:16:41.802Z,1.42
2022-07-26T16:19:09.147Z,1.55
2022-07-26T16:21:37.135Z,1.48
2022-07-26T16:24:07.417Z,1.48
2022-07-26T16:26:35.293Z,1.30
2022-07-26T16:29:03.170Z,1.55
2022-07-26T16:31:30.804Z,1.13
2022-07-26T16:33:57.692Z,1.83
2022-07-26T16:36:24.628Z,1.25
2022-07-26T16:38:51.477Z,1.55
2022-07-26T16:41:18.334Z,1.45
2022-07-26T16:43:45.300Z,1.42
2022-07-26T16:46:12.220Z,1.10
2022-07-26T16:48:39.217Z,1.50
2022-07-26T16:51:06.183Z,1.10
2022-07-26T16:53:33.140Z,1.30
2022-07-26T16:56:00.012Z,1.25
2022-07-26T16:58:26.842Z,1.30
2022-07-26T17:00:53.856Z,1.65
2022-07-26T17:03:20.822Z,1.40
2022-07-26T17:05:47.741Z,1.35
2022-07-26T17:08:14.581Z,1.25
2022-07-26T17:10:41.631Z,1.48
2022-07-26T17:13:08.757Z,1.65
2022-07-26T17:15:36.122Z,1.15
2022-07-26T17:18:03.121Z,1.25
2022-07-26T17:20:29.962Z,1.40
2022-07-26T17:22:56.901Z,1.38
2022-07-26T17:25:23.744Z,1.52
2022-07-26T17:27:51.009Z,1.60
2022-07-26T17:30:18.053Z,1.42
2022-07-26T17:32:45.195Z,1.60
2022-07-26T17:35:12.125Z,1.20
2022-07-26T17:37:39.994Z,1.20
2022-07-26T17:40:08.437Z,1.20
2022-07-26T17:42:36.429Z,1.35
2022-07-26T17:45:04.832Z,1.10
2022-07-26T17:47:31.880Z,0.90
2022-07-26T17:52:51.183Z,1.10
2022-07-26T17:55:19.608Z,1.70
2022-07-26T17:57:47.906Z,1.60
2022-07-26T18:00:16.207Z,1.17
2022-07-26T18:02:43.162Z,1.70
2022-07-26T18:05:11.277Z,1.05
2022-07-26T18:07:38.729Z,1.10
2022-07-26T18:10:06.216Z,1.27
2022-07-26T18:12:33.202Z,1.10
2022-07-26T18:15:00.074Z,1.10
2022-07-26T18:17:26.917Z,1.20
2022-07-26T18:19:53.803Z,1.27
2022-07-26T18:22:20.671Z,1.45
2022-07-26T18:24:47.531Z,1.40
2022-07-26T18:27:14.339Z,1.20
2022-07-26T18:29:41.731Z,1.50
2022-07-26T18:32:08.918Z,1.38
2022-07-26T18:34:35.849Z,1.25
2022-07-26T18:37:02.694Z,1.00
2022-07-26T18:39:32.634Z,1.10
2022-07-26T18:42:00.096Z,1.20
2022-07-26T18:44:27.010Z,1.33
2022-07-26T18:46:56.194Z,1.13
2022-07-26T18:49:23.747Z,1.30
2022-07-26T18:52:00.676Z,2.25
2022-07-26T18:54:32.435Z,1.00
2022-07-26T18:56:59.338Z,1.20
2022-07-26T18:59:26.254Z,1.08
2022-07-26T19:01:53.235Z,0.90
2022-07-26T19:04:21.721Z,1.02
2022-07-26T19:06:49.722Z,1.17
2022-07-26T19:09:16.830Z,1.15
2022-07-26T19:11:45.821Z,1.40
2022-07-26T19:14:13.097Z,1.20
2022-07-26T19:16:40.209Z,1.23
2022-07-26T19:19:07.132Z,0.95
2022-07-26T19:21:34.020Z,1.05
2022-07-26T19:24:00.853Z,1.23
2022-07-26T19:26:29.186Z,1.20
2022-07-26T19:28:56.100Z,0.85
2022-07-26T19:31:23.087Z,1.08
2022-07-26T19:33:50.194Z,1.75
2022-07-26T19:36:25.607Z,1.30
2022-07-26T19:38:54.047Z,0.85
2022-07-26T19:41:21.080Z,1.13
2022-07-26T19:43:48.014Z,1.20
2022-07-26T19:46:15.252Z,1.13
2022-07-26T19:48:42.262Z,1.33
2022-07-26T19:51:09.214Z,1.25
2022-07-26T19:53:36.053Z,1.40
2022-07-26T19:56:03.622Z,1.40
2022-07-26T19:58:30.862Z,1.20
2022-07-26T20:00:57.953Z,1.00
2022-07-26T20:03:24.836Z,1.17
2022-07-26T20:05:53.684Z,1.33
2022-07-26T20:08:20.748Z,1.70
2022-07-26T20:10:47.634Z,1.40
2022-07-26T20:13:14.574Z,1.00
2022-07-26T20:15:41.423Z,0.88
2022-07-26T20:18:09.097Z,1.02
2022-07-26T20:20:36.389Z,1.63
2022-07-26T20:23:05.802Z,1.10
2022-07-26T20:25:32.827Z,1.70
2022-07-26T20:28:00.267Z,1.20
2022-07-26T20:30:27.854Z,1.20
2022-07-26T20:32:54.812Z,1.20
2022-07-26T20:35:21.784Z,1.25
2022-07-26T20:37:48.596Z,1.42
2022-07-26T20:40:17.998Z,1.17
2022-07-26T20:42:45.521Z,1.45
2022-07-26T20:45:15.392Z,0.98
2022-07-26T20:47:42.974Z,1.30
2022-07-26T20:50:11.717Z,1.45
2022-07-26T20:52:39.564Z,1.33
2022-07-26T20:55:07.424Z,0.98
2022-07-26T20:57:34.446Z,1.23
2022-07-26T21:00:01.334Z,1.40
2022-07-26T21:02:28.278Z,1.35
2022-07-26T21:04:55.307Z,1.17
2022-07-26T21:07:22.496Z,1.35
2022-07-26T21:09:49.354Z,1.10
2022-07-26T21:12:16.137Z,1.48
2022-07-26T21:14:42.966Z,1.00
2022-07-26T21:17:12.033Z,1.20
2022-07-26T21:19:40.034Z,1.23
2022-07-26T21:22:07.440Z,1.25
2022-07-26T21:24:37.855Z,1.20
2022-07-26T21:27:05.822Z,1.42
2022-07-26T21:29:38.120Z,1.17
2022-07-26T21:32:07.610Z,1.23
2022-07-26T21:34:34.750Z,1.40
2022-07-26T21:37:03.918Z,1.42
2022-07-26T21:39:31.148Z,1.30
2022-07-26T21:41:58.063Z,1.30
2022-07-26T21:44:25.388Z,1.23
2022-07-26T21:46:54.952Z,1.42
2022-07-26T21:49:22.069Z,1.50
2022-07-26T21:51:49.032Z,1.35
2022-07-26T21:54:15.854Z,2.05
2022-07-26T21:56:43.310Z,1.25
2022-07-26T21:59:10.449Z,1.20
2022-07-26T22:01:37.426Z,2.00
2022-07-26T22:04:04.455Z,1.27
2022-07-26T22:06:31.254Z,1.13
2022-07-26T22:08:58.134Z,1.55
2022-07-26T22:11:24.965Z,1.05
2022-07-26T22:13:52.485Z,1.00
2022-07-26T22:16:19.435Z,1.30
2022-07-26T22:18:47.170Z,1.20
2022-07-26T22:21:14.107Z,0.90
2022-07-26T22:23:41.025Z,1.30
2022-07-26T22:26:07.871Z,1.33
2022-07-26T22:28:34.826Z,1.20
2022-07-26T22:31:01.746Z,1.50
2022-07-26T22:33:28.606Z,1.20
2022-07-26T22:35:55.487Z,1.45
2022-07-26T22:38:22.352Z,1.10
2022-07-26T22:40:49.541Z,1.58
2022-07-26T22:43:16.409Z,1.05
2022-07-26T22:45:43.500Z,1.40
2022-07-26T22:48:10.489Z,1.65
2022-07-26T22:50:37.494Z,1.30
2022-07-26T22:53:04.509Z,1.50
2022-07-26T22:55:31.477Z,1.27
2022-07-26T22:57:58.454Z,1.20
2022-07-26T23:00:25.718Z,0.95
2022-07-26T23:02:52.740Z,1.10
2022-07-26T23:05:19.687Z,1.58
2022-07-26T23:07:48.186Z,1.08
2022-07-26T23:10:15.552Z,1.23
2022-07-26T23:12:42.506Z,1.20
2022-07-26T23:15:10.086Z,1.20
2022-07-26T23:17:37.786Z,1.05
2022-07-26T23:20:06.822Z,1.30
2022-07-26T23:22:34.134Z,1.10
2022-07-26T23:25:00.965Z,1.10
2022-07-26T23:27:27.857Z,1.48
2022-07-26T23:29:54.750Z,1.75
2022-07-26T23:32:21.637Z,1.27
2022-07-26T23:34:48.485Z,1.52
2022-07-26T23:37:15.313Z,1.50
2022-07-26T23:39:42.362Z,1.75
2022-07-26T23:42:09.209Z,2.13
2022-07-26T23:44:36.127Z,1.02
2022-07-26T23:47:03.202Z,1.15
2022-07-26T23:49:30.180Z,1.13
2022-07-26T23:51:57.107Z,1.35
2022-07-26T23:54:23.908Z,1.90
2022-07-26T23:56:50.845Z,1.30
2022-07-26T23:59:17.760Z,1.92
